createdAt,value
2022-11-02T00:01:15.000Z,280.02
2022-11-02T00:02:41.000Z,279.9
2022-11-02T00:04:48.000Z,279.9
2022-11-02T00:06:14.000Z,279.96
2022-11-02T00:08:20.000Z,280.02
2022-11-02T00:09:47.000Z,280.15
2022-11-02T00:11:53.000Z,280.21
2022-11-02T00:13:19.000Z,280.15
2022-11-02T00:15:25.000Z,280.09
2022-11-02T00:16:52.000Z,280.15
2022-11-02T00:18:58.000Z,280.21
2022-11-02T00:20:25.000Z,280.21
2022-11-02T00:22:31.000Z,280.21
2022-11-02T00:23:57.000Z,280.15
2022-11-02T00:26:03.000Z,280.21
2022-11-02T00:27:30.000Z,280.15
2022-11-02T00:29:36.000Z,280.15
2022-11-02T00:31:02.000Z,280.02
2022-11-02T00:33:08.000Z,279.84
2022-11-02T00:35:59.000Z,279.9
2022-11-02T00:37:26.000Z,279.84
2022-11-02T00:39:32.000Z,279.77
2022-11-02T00:40:58.000Z,279.77
2022-11-02T00:43:05.000Z,279.65
2022-11-02T00:44:31.000Z,279.71
2022-11-02T00:46:37.000Z,279.71
2022-11-02T00:48:04.000Z,279.71
2022-11-02T00:50:11.000Z,279.71
2022-11-02T00:51:37.000Z,279.77
2022-11-02T00:53:43.000Z,279.77
2022-11-02T00:55:10.000Z,279.84
2022-11-02T00:57:16.000Z,279.96
2022-11-02T00:58:43.000Z,280.02
2022-11-02T01:00:49.000Z,280.21
2022-11-02T01:02:15.000Z,280.15
2022-11-02T01:04:22.000Z,280.09
2022-11-02T01:05:48.000Z,280.15
2022-11-02T01:07:54.000Z,280.09
2022-11-02T01:09:21.000Z,280.15
2022-11-02T01:11:27.000Z,280.27
2022-11-02T01:14:18.000Z,280.46
2022-11-02T01:15:45.000Z,280.71
2022-11-02T01:17:51.000Z,280.71
2022-11-02T01:19:17.000Z,280.77
2022-11-02T01:21:23.000Z,280.71
2022-11-02T01:22:50.000Z,280.9
2022-11-02T01:24:56.000Z,280.71
2022-11-02T01:26:22.000Z,280.77
2022-11-02T01:28:29.000Z,280.84
2022-11-02T01:29:55.000Z,280.9
2022-11-02T01:32:01.000Z,280.9
2022-11-02T01:33:28.000Z,281.02
2022-11-02T01:35:34.000Z,281.09
2022-11-02T01:37:00.000Z,281.02
2022-11-02T01:39:06.000Z,281.27
2022-11-02T01:40:33.000Z,281.46
2022-11-02T01:42:39.000Z,281.27
2022-11-02T01:44:05.000Z,281.15
2022-11-02T01:46:11.000Z,281.21
2022-11-02T01:47:38.000Z,281.09
2022-11-02T01:49:44.000Z,280.96
2022-11-02T01:52:35.000Z,280.96
2022-11-02T01:54:02.000Z,280.96
2022-11-02T01:56:08.000Z,281.02
2022-11-02T01:57:34.000Z,281.21
2022-11-02T01:59:40.000Z,281.15
2022-11-02T02:01:07.000Z,281.21
2022-11-02T02:03:13.000Z,281.15
2022-11-02T02:04:40.000Z,281.27
2022-11-02T02:06:46.000Z,281.21
2022-11-02T02:08:12.000Z,281.27
2022-11-02T02:10:18.000Z,281.4
2022-11-02T02:11:45.000Z,281.4
2022-11-02T02:13:51.000Z,281.59
2022-11-02T02:15:17.000Z,281.59
2022-11-02T02:17:24.000Z,281.59
2022-11-02T02:18:50.000Z,281.65
2022-11-02T02:20:56.000Z,281.84
2022-11-02T02:22:23.000Z,281.77
2022-11-02T02:24:29.000Z,281.77
2022-11-02T02:25:56.000Z,281.84
2022-11-02T02:28:02.000Z,282.09
2022-11-02T02:30:53.000Z,282.15
2022-11-02T02:32:20.000Z,282.09
2022-11-02T02:34:26.000Z,282.21
2022-11-02T02:35:52.000Z,282.27
2022-11-02T02:37:59.000Z,282.4
2022-11-02T02:39:25.000Z,282.4
2022-11-02T02:41:32.000Z,282.4
2022-11-02T02:42:58.000Z,282.46
2022-11-02T02:45:04.000Z,282.52
2022-11-02T02:46:31.000Z,282.46
2022-11-02T02:48:39.000Z,282.52
2022-11-02T02:50:05.000Z,282.52
2022-11-02T02:52:11.000Z,282.52
2022-11-02T02:53:38.000Z,282.59
2022-11-02T02:55:44.000Z,282.59
2022-11-02T02:57:10.000Z,282.59
2022-11-02T02:59:16.000Z,282.52
2022-11-02T03:00:43.000Z,282.52
2022-11-02T03:02:49.000Z,282.59
2022-11-02T03:04:15.000Z,282.59
2022-11-02T03:06:21.000Z,282.59
2022-11-02T03:09:13.000Z,282.65
2022-11-02T03:10:39.000Z,282.65
2022-11-02T03:12:45.000Z,282.65
2022-11-02T03:14:12.000Z,282.65
2022-11-02T03:16:18.000Z,282.77
2022-11-02T03:17:44.000Z,282.71
2022-11-02T03:19:50.000Z,282.77
2022-11-02T03:21:17.000Z,282.65
2022-11-02T03:23:23.000Z,282.71
2022-11-02T03:24:49.000Z,282.71
2022-11-02T03:26:56.000Z,282.71
2022-11-02T03:28:22.000Z,282.77
2022-11-02T03:30:28.000Z,282.77
2022-11-02T03:31:55.000Z,282.84
2022-11-02T03:34:01.000Z,282.84
2022-11-02T03:35:27.000Z,282.9
2022-11-02T03:37:33.000Z,282.96
2022-11-02T03:39:00.000Z,282.96
2022-11-02T03:41:06.000Z,283.02
2022-11-02T03:42:32.000Z,283.02
2022-11-02T03:44:38.000Z,283.09
2022-11-02T03:47:29.000Z,283.09
2022-11-02T03:48:56.000Z,283.15
2022-11-02T03:51:02.000Z,283.15
2022-11-02T03:52:28.000Z,283.21
2022-11-02T03:54:34.000Z,283.21
2022-11-02T03:56:01.000Z,283.21
2022-11-02T03:58:07.000Z,283.15
2022-11-02T03:59:33.000Z,283.15
2022-11-02T04:01:40.000Z,283.21
2022-11-02T04:03:06.000Z,283.27
2022-11-02T04:05:13.000Z,283.27
2022-11-02T04:06:39.000Z,283.27
2022-11-02T04:08:45.000Z,283.4
2022-11-02T04:10:12.000Z,283.4
2022-11-02T04:12:18.000Z,283.34
2022-11-02T04:13:44.000Z,283.34
2022-11-02T04:15:50.000Z,283.34
2022-11-02T04:17:17.000Z,283.34
2022-11-02T04:19:23.000Z,283.27
2022-11-02T04:20:50.000Z,283.27
2022-11-02T04:22:56.000Z,283.15
2022-11-02T04:25:47.000Z,283.15
2022-11-02T04:27:13.000Z,283.15
2022-11-02T04:29:25.000Z,283.21
2022-11-02T04:30:51.000Z,283.21
2022-11-02T04:32:57.000Z,283.15
2022-11-02T04:34:24.000Z,283.15
2022-11-02T04:36:30.000Z,283.21
2022-11-02T04:37:56.000Z,283.27
2022-11-02T04:40:02.000Z,283.34
2022-11-02T04:41:29.000Z,283.34
2022-11-02T04:43:35.000Z,283.27
2022-11-02T04:45:01.000Z,283.27
2022-11-02T04:47:07.000Z,283.27
2022-11-02T04:48:34.000Z,283.21
2022-11-02T04:50:40.000Z,283.21
2022-11-02T04:52:07.000Z,283.15
2022-11-02T04:54:13.000Z,283.21
2022-11-02T04:55:39.000Z,283.27
2022-11-02T04:57:45.000Z,283.21
2022-11-02T04:59:12.000Z,283.21
2022-11-02T05:01:18.000Z,283.34
2022-11-02T05:04:09.000Z,283.34
2022-11-02T05:05:35.000Z,283.34
2022-11-02T05:07:42.000Z,283.27
2022-11-02T05:09:08.000Z,283.34
2022-11-02T05:11:14.000Z,283.4
2022-11-02T05:12:41.000Z,283.34
2022-11-02T05:14:47.000Z,283.34
2022-11-02T05:16:13.000Z,283.27
2022-11-02T05:19:46.000Z,283.34
2022-11-02T05:21:52.000Z,283.34
2022-11-02T05:23:19.000Z,283.34
2022-11-02T05:25:25.000Z,283.27
2022-11-02T05:26:51.000Z,283.27
2022-11-02T05:28:58.000Z,283.34
2022-11-02T05:30:24.000Z,283.4
2022-11-02T05:32:30.000Z,283.4
2022-11-02T05:33:57.000Z,283.4
2022-11-02T05:36:03.000Z,283.4
2022-11-02T05:37:30.000Z,283.34
2022-11-02T05:39:36.000Z,283.27
2022-11-02T05:42:27.000Z,283.15
2022-11-02T05:43:53.000Z,283.15
2022-11-02T05:45:59.000Z,283.09
2022-11-02T05:47:26.000Z,283.02
2022-11-02T05:49:32.000Z,283.02
2022-11-02T05:50:59.000Z,282.96
2022-11-02T05:53:05.000Z,282.9
2022-11-02T05:54:32.000Z,282.9
2022-11-02T05:56:38.000Z,282.84
2022-11-02T05:58:04.000Z,282.84
2022-11-02T06:00:10.000Z,282.84
2022-11-02T06:01:37.000Z,282.84
2022-11-02T06:03:43.000Z,282.77
2022-11-02T06:05:17.000Z,282.71
2022-11-02T06:07:23.000Z,282.71
2022-11-02T06:08:50.000Z,282.65
2022-11-02T06:10:56.000Z,282.59
2022-11-02T06:12:22.000Z,282.59
2022-11-02T06:14:29.000Z,282.59
2022-11-02T06:15:55.000Z,282.65
2022-11-02T06:18:01.000Z,282.65
2022-11-02T06:20:52.000Z,282.65
2022-11-02T06:22:19.000Z,282.65
2022-11-02T06:24:25.000Z,282.65
2022-11-02T06:25:52.000Z,282.65
2022-11-02T06:27:58.000Z,282.65
2022-11-02T06:29:24.000Z,282.65
2022-11-02T06:31:30.000Z,282.65
2022-11-02T06:32:57.000Z,282.65
2022-11-02T06:35:10.000Z,282.59
2022-11-02T06:36:37.000Z,282.59
2022-11-02T06:38:43.000Z,282.52
2022-11-02T06:40:10.000Z,282.52
2022-11-02T06:42:16.000Z,282.59
2022-11-02T06:43:42.000Z,282.59
2022-11-02T06:45:48.000Z,282.65
2022-11-02T06:47:15.000Z,282.65
2022-11-02T06:49:21.000Z,282.71
2022-11-02T06:50:48.000Z,282.71
2022-11-02T06:52:54.000Z,282.77
2022-11-02T06:54:20.000Z,282.77
2022-11-02T06:56:26.000Z,282.9
2022-11-02T06:59:17.000Z,282.84
2022-11-02T07:00:44.000Z,282.9
2022-11-02T07:02:50.000Z,282.9
2022-11-02T07:04:17.000Z,282.96
2022-11-02T07:06:23.000Z,282.9
2022-11-02T07:07:49.000Z,282.96
2022-11-02T07:09:55.000Z,282.96
2022-11-02T07:11:22.000Z,282.96
2022-11-02T07:13:28.000Z,283.02
2022-11-02T07:14:55.000Z,282.96
2022-11-02T07:17:01.000Z,282.96
2022-11-02T07:18:27.000Z,282.96
2022-11-02T07:20:33.000Z,283.02
2022-11-02T07:22:00.000Z,283.02
2022-11-02T07:24:06.000Z,283.09
2022-11-02T07:25:32.000Z,283.09
2022-11-02T07:27:38.000Z,283.09
2022-11-02T07:29:05.000Z,283.15
2022-11-02T07:31:11.000Z,283.15
2022-11-02T07:32:37.000Z,283.15
2022-11-02T07:34:44.000Z,283.15
2022-11-02T07:37:35.000Z,283.15
2022-11-02T07:39:01.000Z,283.21
2022-11-02T07:41:07.000Z,283.21
2022-11-02T07:42:34.000Z,283.21
2022-11-02T07:44:40.000Z,283.21
2022-11-02T07:46:06.000Z,283.27
2022-11-02T07:48:12.000Z,283.27
2022-11-02T07:49:39.000Z,283.34
2022-11-02T07:51:45.000Z,283.34
2022-11-02T07:53:12.000Z,283.34
2022-11-02T07:55:18.000Z,283.4
2022-11-02T07:56:44.000Z,283.4
2022-11-02T07:58:50.000Z,283.4
2022-11-02T08:00:17.000Z,283.46
2022-11-02T08:02:23.000Z,283.52
2022-11-02T08:03:50.000Z,283.52
2022-11-02T08:05:56.000Z,283.52
2022-11-02T08:07:23.000Z,283.52
2022-11-02T08:09:29.000Z,283.59
2022-11-02T08:10:55.000Z,283.65
2022-11-02T08:13:01.000Z,283.65
2022-11-02T08:15:52.000Z,283.71
2022-11-02T08:17:19.000Z,283.77
2022-11-02T08:19:25.000Z,283.77
2022-11-02T08:20:51.000Z,283.84
2022-11-02T08:23:00.000Z,283.84
2022-11-02T08:24:27.000Z,283.9
2022-11-02T08:26:33.000Z,283.9
2022-11-02T08:27:59.000Z,283.96
2022-11-02T08:30:06.000Z,283.96
2022-11-02T08:31:32.000Z,283.96
2022-11-02T08:33:38.000Z,284.09
2022-11-02T08:35:05.000Z,284.09
2022-11-02T08:37:11.000Z,284.15
2022-11-02T08:38:37.000Z,284.15
2022-11-02T08:40:44.000Z,284.21
2022-11-02T08:42:10.000Z,284.15
2022-11-02T08:44:16.000Z,284.21
2022-11-02T08:45:43.000Z,284.21
2022-11-02T08:48:19.000Z,284.21
2022-11-02T08:49:46.000Z,284.27
2022-11-02T08:51:52.000Z,284.34
2022-11-02T08:54:43.000Z,284.34
2022-11-02T08:56:10.000Z,284.34
2022-11-02T08:58:16.000Z,284.4
2022-11-02T08:59:42.000Z,284.4
2022-11-02T09:01:48.000Z,284.4
2022-11-02T09:03:15.000Z,284.4
2022-11-02T09:05:29.000Z,284.46
2022-11-02T09:06:55.000Z,284.52
2022-11-02T09:09:01.000Z,284.59
2022-11-02T09:10:28.000Z,284.59
2022-11-02T09:12:34.000Z,284.46
2022-11-02T09:14:00.000Z,284.46
2022-11-02T09:16:06.000Z,284.52
2022-11-02T09:17:33.000Z,284.52
2022-11-02T09:19:39.000Z,284.59
2022-11-02T09:21:06.000Z,284.59
2022-11-02T09:23:12.000Z,284.59
2022-11-02T09:24:38.000Z,284.59
2022-11-02T09:26:45.000Z,284.65
2022-11-02T09:28:11.000Z,284.71
2022-11-02T09:30:17.000Z,284.65
2022-11-02T09:33:08.000Z,284.71
2022-11-02T09:34:35.000Z,284.77
2022-11-02T09:36:41.000Z,284.77
2022-11-02T09:38:08.000Z,284.84
2022-11-02T09:40:14.000Z,284.84
2022-11-02T09:41:40.000Z,284.96
2022-11-02T09:43:46.000Z,284.96
2022-11-02T09:45:13.000Z,285.02
2022-11-02T09:47:19.000Z,285.02
2022-11-02T09:49:39.000Z,284.84
2022-11-02T09:51:45.000Z,284.71
2022-11-02T09:53:12.000Z,284.71
2022-11-02T09:55:18.000Z,284.71
2022-11-02T09:56:45.000Z,284.71
2022-11-02T09:58:51.000Z,284.71
2022-11-02T10:00:17.000Z,284.77
2022-11-02T10:02:23.000Z,284.84
2022-11-02T10:03:50.000Z,284.84
2022-11-02T10:05:56.000Z,284.96
2022-11-02T10:07:23.000Z,285.02
2022-11-02T10:09:29.000Z,285.09
2022-11-02T10:12:20.000Z,285.4
2022-11-02T10:13:47.000Z,285.46
2022-11-02T10:15:58.000Z,285.52
2022-11-02T10:17:24.000Z,285.71
2022-11-02T10:19:30.000Z,285.71
2022-11-02T10:20:57.000Z,285.71
2022-11-02T10:23:03.000Z,285.59
2022-11-02T10:24:30.000Z,285.65
2022-11-02T10:26:36.000Z,285.59
2022-11-02T10:28:03.000Z,285.59
2022-11-02T10:30:09.000Z,285.59
2022-11-02T10:31:35.000Z,285.52
2022-11-02T10:33:41.000Z,285.4
2022-11-02T10:35:08.000Z,285.34
2022-11-02T10:37:40.000Z,285.34
2022-11-02T10:39:07.000Z,285.4
2022-11-02T10:41:13.000Z,285.59
2022-11-02T10:42:40.000Z,285.65
2022-11-02T10:44:46.000Z,285.71
2022-11-02T10:46:12.000Z,285.84
2022-11-02T10:48:18.000Z,285.9
2022-11-02T10:51:10.000Z,285.71
2022-11-02T10:52:36.000Z,285.65
2022-11-02T10:54:42.000Z,285.46
2022-11-02T10:56:09.000Z,285.59
2022-11-02T10:58:15.000Z,285.59
2022-11-02T10:59:41.000Z,285.52
2022-11-02T11:01:48.000Z,285.46
2022-11-02T11:03:14.000Z,285.46
2022-11-02T11:05:20.000Z,285.4
2022-11-02T11:06:47.000Z,285.52
2022-11-02T11:08:53.000Z,285.59
2022-11-02T11:10:19.000Z,285.59
2022-11-02T11:12:25.000Z,285.52
2022-11-02T11:16:28.000Z,285.52
2022-11-02T11:20:31.000Z,285.4
2022-11-02T11:21:57.000Z,285.4
2022-11-02T11:24:03.000Z,285.34
2022-11-02T11:25:30.000Z,285.4
2022-11-02T11:27:36.000Z,285.46
2022-11-02T11:30:27.000Z,285.84
2022-11-02T11:32:24.000Z,285.77
2022-11-02T11:34:34.000Z,285.84
2022-11-02T11:36:01.000Z,285.9
2022-11-02T11:38:07.000Z,285.84
2022-11-02T11:39:33.000Z,285.84
2022-11-02T11:41:39.000Z,286.02
2022-11-02T11:43:06.000Z,286.02
2022-11-02T11:45:12.000Z,285.9
2022-11-02T11:46:39.000Z,285.9
2022-11-02T11:48:45.000Z,285.96
2022-11-02T11:50:11.000Z,285.96
2022-11-02T11:52:32.000Z,285.96
2022-11-02T11:53:59.000Z,286.02
2022-11-02T11:56:05.000Z,286.02
2022-11-02T11:57:31.000Z,286.09
2022-11-02T11:59:38.000Z,286.27
2022-11-02T12:01:04.000Z,286.34
2022-11-02T12:03:14.000Z,286.34
2022-11-02T12:04:41.000Z,286.34
2022-11-02T12:06:47.000Z,286.27
2022-11-02T12:09:38.000Z,286.15
2022-11-02T12:11:05.000Z,286.09
2022-11-02T12:13:11.000Z,286.09
2022-11-02T12:14:38.000Z,286.09
2022-11-02T12:16:44.000Z,286.02
2022-11-02T12:18:10.000Z,286.02
2022-11-02T12:20:16.000Z,286.02
2022-11-02T12:21:43.000Z,286.09
2022-11-02T12:23:49.000Z,286.09
2022-11-02T12:25:16.000Z,286.15
2022-11-02T12:27:22.000Z,286.09
2022-11-02T12:28:49.000Z,286.15
2022-11-02T12:30:55.000Z,286.21
2022-11-02T12:32:21.000Z,286.21
2022-11-02T12:34:27.000Z,286.34
2022-11-02T12:35:54.000Z,286.4
2022-11-02T12:38:00.000Z,286.34
2022-11-02T12:39:27.000Z,286.4
2022-11-02T12:41:33.000Z,286.52
2022-11-02T12:42:59.000Z,286.77
2022-11-02T12:45:06.000Z,286.71
2022-11-02T12:47:57.000Z,286.71
2022-11-02T12:49:23.000Z,286.77
2022-11-02T12:51:29.000Z,286.84
2022-11-02T12:52:56.000Z,286.77
2022-11-02T12:55:02.000Z,286.65
2022-11-02T12:56:29.000Z,286.59
2022-11-02T12:58:35.000Z,286.65
2022-11-02T13:00:01.000Z,286.52
2022-11-02T13:02:07.000Z,286.59
2022-11-02T13:03:34.000Z,286.46
2022-11-02T13:05:40.000Z,286.46
2022-11-02T13:07:07.000Z,286.46
2022-11-02T13:09:13.000Z,286.4
2022-11-02T13:10:39.000Z,286.4
2022-11-02T13:12:45.000Z,286.4
2022-11-02T13:14:12.000Z,286.4
2022-11-02T13:16:19.000Z,286.4
2022-11-02T13:17:46.000Z,286.27
2022-11-02T13:19:52.000Z,286.21
2022-11-02T13:21:18.000Z,286.21
2022-11-02T13:23:25.000Z,286.15
2022-11-02T13:26:16.000Z,285.9
2022-11-02T13:27:42.000Z,285.84
2022-11-02T13:29:48.000Z,285.71
2022-11-02T13:31:15.000Z,285.59
2022-11-02T13:33:21.000Z,285.59
2022-11-02T13:34:48.000Z,285.52
2022-11-02T13:36:54.000Z,285.46
2022-11-02T13:38:21.000Z,285.52
2022-11-02T13:40:27.000Z,285.59
2022-11-02T13:41:53.000Z,285.71
2022-11-02T13:43:59.000Z,285.71
2022-11-02T13:45:26.000Z,285.77
2022-11-02T13:47:32.000Z,285.77
2022-11-02T13:48:58.000Z,285.9
2022-11-02T13:51:05.000Z,285.96
2022-11-02T13:52:31.000Z,286.02
2022-11-02T13:54:37.000Z,286.09
2022-11-02T13:56:04.000Z,286.02
2022-11-02T13:58:10.000Z,286.02
2022-11-02T13:59:36.000Z,286.09
2022-11-02T14:01:47.000Z,286.09
2022-11-02T14:04:38.000Z,286.09
2022-11-02T14:06:05.000Z,286.15
2022-11-02T14:08:11.000Z,286.21
2022-11-02T14:09:38.000Z,286.21
2022-11-02T14:11:44.000Z,286.27
2022-11-02T14:13:10.000Z,286.27
2022-11-02T14:15:16.000Z,286.27
2022-11-02T14:16:43.000Z,286.27
2022-11-02T14:18:49.000Z,286.21
2022-11-02T14:20:15.000Z,286.15
2022-11-02T14:22:21.000Z,286.09
2022-11-02T14:23:48.000Z,286.09
2022-11-02T14:25:54.000Z,286.02
2022-11-02T14:27:21.000Z,285.96
2022-11-02T14:29:27.000Z,285.96
2022-11-02T14:30:53.000Z,285.96
2022-11-02T14:32:59.000Z,285.96
2022-11-02T14:34:26.000Z,285.9
2022-11-02T14:36:32.000Z,285.77
2022-11-02T14:37:58.000Z,285.77
2022-11-02T14:40:05.000Z,285.65
2022-11-02T14:42:56.000Z,285.46
2022-11-02T14:44:22.000Z,285.46
2022-11-02T14:46:29.000Z,285.4
2022-11-02T14:47:55.000Z,285.34
2022-11-02T14:50:01.000Z,285.34
2022-11-02T14:51:28.000Z,285.27
2022-11-02T14:53:34.000Z,285.27
2022-11-02T14:55:00.000Z,285.21
2022-11-02T14:57:06.000Z,285.21
2022-11-02T14:58:33.000Z,285.15
2022-11-02T15:00:39.000Z,285.15
2022-11-02T15:02:06.000Z,285.09
2022-11-02T15:04:12.000Z,285.02
2022-11-02T15:05:38.000Z,285.02
2022-11-02T15:07:44.000Z,284.9
2022-11-02T15:09:11.000Z,284.9
2022-11-02T15:11:17.000Z,284.71
2022-11-02T15:12:44.000Z,284.71
2022-11-02T15:14:50.000Z,284.65
2022-11-02T15:16:16.000Z,284.52
2022-11-02T15:18:23.000Z,284.46
2022-11-02T15:21:14.000Z,284.4
2022-11-02T15:22:40.000Z,284.27
2022-11-02T15:24:46.000Z,284.15
2022-11-02T15:26:13.000Z,284.15
2022-11-02T15:28:19.000Z,283.96
2022-11-02T15:29:45.000Z,283.9
2022-11-02T15:31:52.000Z,283.65
2022-11-02T15:33:18.000Z,283.65
2022-11-02T15:35:24.000Z,283.46
2022-11-02T15:36:51.000Z,283.4
2022-11-02T15:38:57.000Z,283.34
2022-11-02T15:40:23.000Z,283.27
2022-11-02T15:42:29.000Z,283.15
2022-11-02T15:43:56.000Z,283.09
2022-11-02T15:46:02.000Z,283.02
2022-11-02T15:47:33.000Z,283.02
2022-11-02T15:49:40.000Z,282.96
2022-11-02T15:51:06.000Z,282.9
2022-11-02T15:53:12.000Z,282.84
2022-11-02T15:54:48.000Z,282.84
2022-11-02T15:56:54.000Z,282.71
2022-11-02T15:59:45.000Z,282.52
2022-11-02T16:01:12.000Z,282.46
2022-11-02T16:03:18.000Z,282.46
2022-11-02T16:04:44.000Z,282.46
2022-11-02T16:06:51.000Z,282.4
2022-11-02T16:08:17.000Z,282.4
2022-11-02T16:10:23.000Z,282.34
2022-11-02T16:11:50.000Z,282.27
2022-11-02T16:13:56.000Z,282.15
2022-11-02T16:15:33.000Z,282.27
2022-11-02T16:17:39.000Z,282.4
2022-11-02T16:19:06.000Z,282.21
2022-11-02T16:21:12.000Z,282.09
2022-11-02T16:22:38.000Z,282.02
2022-11-02T16:24:44.000Z,281.96
2022-11-02T16:26:11.000Z,281.96
2022-11-02T16:28:17.000Z,281.77
2022-11-02T16:29:44.000Z,281.77
2022-11-02T16:31:50.000Z,281.77
2022-11-02T16:33:16.000Z,281.77
2022-11-02T16:35:22.000Z,281.77
2022-11-02T16:38:13.000Z,281.84
2022-11-02T16:39:40.000Z,281.77
2022-11-02T16:41:46.000Z,281.65
2022-11-02T16:43:13.000Z,281.52
2022-11-02T16:45:19.000Z,281.52
2022-11-02T16:46:45.000Z,281.46
2022-11-02T16:48:51.000Z,281.46
2022-11-02T16:50:18.000Z,281.46
2022-11-02T16:52:24.000Z,281.4
2022-11-02T16:53:51.000Z,281.4
2022-11-02T16:55:57.000Z,281.4
2022-11-02T16:57:23.000Z,281.27
2022-11-02T16:59:29.000Z,281.15
2022-11-02T17:00:56.000Z,281.09
2022-11-02T17:03:02.000Z,281.15
2022-11-02T17:04:29.000Z,281.09
2022-11-02T17:06:35.000Z,281.09
2022-11-02T17:08:02.000Z,281.09
2022-11-02T17:10:09.000Z,281.02
2022-11-02T17:11:35.000Z,280.9
2022-11-02T17:13:41.000Z,280.84
2022-11-02T17:16:32.000Z,280.84
2022-11-02T17:17:59.000Z,280.77
2022-11-02T17:20:05.000Z,280.52
2022-11-02T17:21:31.000Z,280.52
2022-11-02T17:23:37.000Z,280.65
2022-11-02T17:25:04.000Z,280.52
2022-11-02T17:27:10.000Z,280.59
2022-11-02T17:28:36.000Z,280.52
2022-11-02T17:30:43.000Z,280.46
2022-11-02T17:32:09.000Z,280.52
2022-11-02T17:34:16.000Z,280.46
2022-11-02T17:35:42.000Z,280.46
2022-11-02T17:37:48.000Z,280.46
2022-11-02T17:39:15.000Z,280.52
2022-11-02T17:41:21.000Z,280.52
2022-11-02T17:42:47.000Z,280.34
2022-11-02T17:44:53.000Z,280.15
2022-11-02T17:46:20.000Z,280.15
2022-11-02T17:48:26.000Z,280.21
2022-11-02T17:49:53.000Z,280.21
2022-11-02T17:51:59.000Z,280.21
2022-11-02T17:54:50.000Z,280.15
2022-11-02T17:56:16.000Z,280.27
2022-11-02T17:58:22.000Z,280.09
2022-11-02T17:59:49.000Z,279.96
2022-11-02T18:01:55.000Z,279.9
2022-11-02T18:03:22.000Z,279.84
2022-11-02T18:05:35.000Z,279.77
2022-11-02T18:07:01.000Z,279.84
2022-11-02T18:09:08.000Z,279.84
2022-11-02T18:10:34.000Z,279.9
2022-11-02T18:12:40.000Z,279.84
2022-11-02T18:14:07.000Z,279.77
2022-11-02T18:16:13.000Z,279.65
2022-11-02T18:17:39.000Z,279.59
2022-11-02T18:19:45.000Z,279.59
2022-11-02T18:21:12.000Z,279.71
2022-11-02T18:23:18.000Z,279.77
2022-11-02T18:24:44.000Z,279.59
2022-11-02T18:26:51.000Z,279.52
2022-11-02T18:28:17.000Z,279.34
2022-11-02T18:30:23.000Z,279.4
2022-11-02T18:33:14.000Z,279.46
2022-11-02T18:34:41.000Z,279.52
2022-11-02T18:36:47.000Z,279.46
2022-11-02T18:38:13.000Z,279.34
2022-11-02T18:40:19.000Z,279.27
2022-11-02T18:41:46.000Z,279.15
2022-11-02T18:43:52.000Z,279.15
2022-11-02T18:45:25.000Z,279.27
2022-11-02T18:47:31.000Z,279.21
2022-11-02T18:48:57.000Z,279.15
2022-11-02T18:51:03.000Z,279.21
2022-11-02T18:52:30.000Z,279.34
2022-11-02T18:54:36.000Z,279.09
2022-11-02T18:56:03.000Z,279.09
2022-11-02T18:58:09.000Z,279.02
2022-11-02T18:59:35.000Z,279.15
2022-11-02T19:01:41.000Z,279.02
2022-11-02T19:03:08.000Z,278.96
2022-11-02T19:05:14.000Z,278.84
2022-11-02T19:06:41.000Z,278.84
2022-11-02T19:08:47.000Z,278.77
2022-11-02T19:11:38.000Z,278.84
2022-11-02T19:13:05.000Z,278.84
2022-11-02T19:15:11.000Z,278.84
2022-11-02T19:16:38.000Z,278.9
2022-11-02T19:18:44.000Z,278.59
2022-11-02T19:20:10.000Z,278.52
2022-11-02T19:22:16.000Z,278.52
2022-11-02T19:23:43.000Z,278.59
2022-11-02T19:25:49.000Z,278.46
2022-11-02T19:27:15.000Z,278.46
2022-11-02T19:29:22.000Z,278.59
2022-11-02T19:30:48.000Z,278.4
2022-11-02T19:32:54.000Z,278.46
2022-11-02T19:34:21.000Z,278.34
2022-11-02T19:36:27.000Z,278.4
2022-11-02T19:37:53.000Z,278.46
2022-11-02T19:39:59.000Z,278.4
2022-11-02T19:41:26.000Z,278.4
2022-11-02T19:43:32.000Z,278.4
2022-11-02T19:44:59.000Z,278.4
2022-11-02T19:47:05.000Z,278.4
2022-11-02T19:49:56.000Z,278.46
2022-11-02T19:51:22.000Z,278.52
2022-11-02T19:53:29.000Z,278.4
2022-11-02T19:54:55.000Z,278.34
2022-11-02T19:57:01.000Z,278.21
2022-11-02T19:58:28.000Z,278.21
2022-11-02T20:00:34.000Z,278.34
2022-11-02T20:02:00.000Z,278.34
2022-11-02T20:04:07.000Z,278.34
2022-11-02T20:05:33.000Z,278.21
2022-11-02T20:07:39.000Z,278.02
2022-11-02T20:09:06.000Z,277.96
2022-11-02T20:11:12.000Z,277.96
2022-11-02T20:12:38.000Z,278.02
2022-11-02T20:14:45.000Z,278.15
2022-11-02T20:16:11.000Z,278.21
2022-11-02T20:18:17.000Z,278.27
2022-11-02T20:19:45.000Z,278.09
2022-11-02T20:21:51.000Z,278.09
2022-11-02T20:23:17.000Z,278.02
2022-11-02T20:25:23.000Z,277.9
2022-11-02T20:28:14.000Z,277.71
2022-11-02T20:29:41.000Z,277.77
2022-11-02T20:31:47.000Z,278.09
2022-11-02T20:33:13.000Z,278.09
2022-11-02T20:35:19.000Z,277.77
2022-11-02T20:36:46.000Z,277.71
2022-11-02T20:38:52.000Z,277.71
2022-11-02T20:40:19.000Z,277.65
2022-11-02T20:42:25.000Z,277.77
2022-11-02T20:43:52.000Z,277.77
2022-11-02T20:45:58.000Z,277.71
2022-11-02T20:48:00.000Z,277.65
2022-11-02T20:50:06.000Z,277.59
2022-11-02T20:51:40.000Z,277.52
2022-11-02T20:53:46.000Z,277.59
2022-11-02T20:55:13.000Z,277.52
2022-11-02T20:57:19.000Z,277.34
2022-11-02T20:58:45.000Z,277.21
2022-11-02T21:00:59.000Z,277.21
2022-11-02T21:02:26.000Z,277.15
2022-11-02T21:04:32.000Z,277.34
2022-11-02T21:07:23.000Z,277.46
2022-11-02T21:08:49.000Z,277.4
2022-11-02T21:10:55.000Z,277.34
2022-11-02T21:12:22.000Z,277.21
2022-11-02T21:14:28.000Z,277.21
2022-11-02T21:15:55.000Z,277.21
2022-11-02T21:18:01.000Z,277.34
2022-11-02T21:19:27.000Z,277.21
2022-11-02T21:21:33.000Z,277.21
2022-11-02T21:23:00.000Z,277.09
2022-11-02T21:25:06.000Z,277.02
2022-11-02T21:26:33.000Z,276.96
2022-11-02T21:28:39.000Z,276.96
2022-11-02T21:30:06.000Z,277.02
2022-11-02T21:32:12.000Z,277.02
2022-11-02T21:33:38.000Z,276.96
2022-11-02T21:35:44.000Z,277.02
2022-11-02T21:37:11.000Z,277.02
2022-11-02T21:39:17.000Z,276.96
2022-11-02T21:40:44.000Z,276.9
2022-11-02T21:42:50.000Z,276.84
2022-11-02T21:45:41.000Z,276.71
2022-11-02T21:47:07.000Z,276.71
2022-11-02T21:49:13.000Z,276.77
2022-11-02T21:50:40.000Z,277.02
2022-11-02T21:52:46.000Z,277.09
2022-11-02T21:54:12.000Z,277.02
2022-11-02T21:56:19.000Z,277.02
2022-11-02T21:57:45.000Z,276.96
2022-11-02T21:59:51.000Z,276.96
2022-11-02T22:01:18.000Z,277.02
2022-11-02T22:03:24.000Z,276.84
2022-11-02T22:04:51.000Z,276.71
2022-11-02T22:06:57.000Z,276.65
2022-11-02T22:08:23.000Z,276.77
2022-11-02T22:10:29.000Z,276.84
2022-11-02T22:11:56.000Z,276.96
2022-11-02T22:14:02.000Z,276.9
2022-11-02T22:15:29.000Z,276.84
2022-11-02T22:17:42.000Z,276.9
2022-11-02T22:19:14.000Z,276.84
2022-11-02T22:21:20.000Z,276.71
2022-11-02T22:24:11.000Z,276.77
2022-11-02T22:25:38.000Z,276.77
2022-11-02T22:27:44.000Z,276.71
2022-11-02T22:29:10.000Z,276.59
2022-11-02T22:31:17.000Z,276.65
2022-11-02T22:32:43.000Z,276.65
2022-11-02T22:34:49.000Z,276.59
2022-11-02T22:36:16.000Z,276.59
2022-11-02T22:38:22.000Z,276.59
2022-11-02T22:39:48.000Z,276.59
2022-11-02T22:41:54.000Z,276.59
2022-11-02T22:43:21.000Z,276.59
2022-11-02T22:45:27.000Z,276.65
2022-11-02T22:46:53.000Z,276.65
2022-11-02T22:48:59.000Z,276.59
2022-11-02T22:50:26.000Z,276.65
2022-11-02T22:52:32.000Z,276.71
2022-11-02T22:53:59.000Z,276.65
2022-11-02T22:56:05.000Z,276.52
2022-11-02T22:57:31.000Z,276.65
2022-11-02T22:59:37.000Z,276.71
2022-11-02T23:02:29.000Z,276.71